Winnipeg, Manitoba

5:50 PM CDT on August 24, 2016 (GMT -0500)
Winnipeg International | | Change Station

Elev 784 ft 49.90 °N, 97.23 °W | Updated 50 minutes ago

Mostly Cloudy
Mostly Cloudy
73 °F
Feels Like 73 °F
N
15
Wind Variable Wind from West

Today
High -- | Low -- °F
--% Chance of Precip.
Yesterday
High -- | Low -- °F
Precip. -- in
Pressure 29.80 in
Visibility 15.0 miles
Clouds Scattered Clouds 6000 ft
Mostly Cloudy 8000 ft
Dew Point 50 °F
Humidity 44%
Rainfall 0.00 in
Snow Depth Not available.
6:33 AM 8:28 PM
Waning Gibbous, 52% visible
METAR CYWG 242200Z 26013KT 15SM SCT060 BKN080 23/10 A2979 RMK CU4AC1 TCU DIST N SLP089 DENSITY ALT 2000FT
Pressure 29.80 in
Visibility 15.0 miles
Clouds Scattered Clouds 6000 ft
Mostly Cloudy 8000 ft
Dew Point 50 °F
Humidity 44%
Rainfall 0.00 in
Snow Depth Not available.
6:33 AM 8:28 PM
Waning Gibbous, 52% visible
METAR CYWG 242200Z 26013KT 15SM SCT060 BKN080 23/10 A2979 RMK CU4AC1 TCU DIST N SLP089 DENSITY ALT 2000FT

10-Day Weather Forecast

Almanac

Astronomy

Aug. 24, 2016 Rise Set
Actual Time
Civil Twilight
Nautical Twilight
Astronomical Twilight
Moon
Length of Visible Light
Length of Day
Tomorrow will be .
, % of the Moon is Illuminated

Today's Extremes

Country Highs Country Lows

Community

WunderPhotos

Upload Photos

1,934,728 photos uploaded!

WunderBlog® & News

Nearby

Air Quality

  Air Quality AQ Index Pollutant
Not available.

Snow Depth

Station Depth Elevation

Earthquake Activity

City Distance Mag. Time & Date
Minimum magnitude displayed is 2.5.

Coastal Water Temperatures

Place Temperature

Stations

Nearby Weather Stations

Station Location Temp. Windchill Dew Point Humidity Wind Precip. Elev Updated Type
                   

Watches & Warnings

There are currently no watches in effect.